CheckWX is a tool to help pilots better visualize weather data.  It is not intended as a substitute for an official pre-flight weather briefing.

08:12:17 UTC

FALA TAF
Lanseria Airport
Johannesburg, South Africa
TAF FALA 220400Z 2206/2306 03003KT 9999 BKN010 TX30/2214Z TN16/2303Z BECMG 2210/2212 33010KT SCT040 PROB40 TEMPO 2215/2224 5000 TSRA FEW040CB BECMG 2216/2218 24008KT BECMG 2300/2302 VRB03KT BKN020 PROB30 TEMPO 2302/2305 5000 BR BKN010

Feb-22@
06:00 UTC

Feb-22 @ 06:00 UTC

Feb-22@
10:00 UTC

Feb-22 @ 10:00 UTC

TAF FALA 220400Z 2206/2306 03003KT 9999 BKN010 TX30/2214Z TN16/2303Z
Wind
  • 030° at 3 KTS
Cloud Levels
  • Broken at 1,000' AGL

Feb-22@
10:00 UTC

Feb-22 @ 10:00 UTC

Feb-22@
16:00 UTC

Feb-22 @ 16:00 UTC

BECMG 2210/2212 33010KT SCT040

Becoming

BecomingConditions expected by Fri, Feb 22, 2019 @ 12:00 UTC

Wind
  • 330° at 10 KTS
Cloud Levels
  • Scattered at 4,000' AGL

Feb-22@
15:00 UTC

Feb-22 @ 15:00 UTC

Feb-23@
00:00 UTC

Feb-23 @ 00:00 UTC

PROB40 TEMPO 2215/2224 5000 TSRA FEW040CB

Temporary - 40% Likelihood

Temporary - 40% Likelihood during this time.

Conditions
Thunderstorm, Rain
Cloud Levels
  • Few at 4,000' AGL

Feb-22@
16:00 UTC

Feb-22 @ 16:00 UTC

Feb-23@
00:00 UTC

Feb-23 @ 00:00 UTC

BECMG 2216/2218 24008KT

Becoming

BecomingConditions expected by Fri, Feb 22, 2019 @ 18:00 UTC

Wind
  • 240° at 8 KTS
Cloud Levels
  • Scattered at 4,000' AGL

Feb-23@
00:00 UTC

Feb-23 @ 00:00 UTC

Feb-23@
06:00 UTC

Feb-23 @ 06:00 UTC

BECMG 2300/2302 VRB03KT BKN020

Becoming

BecomingConditions expected by Sat, Feb 23, 2019 @ 02:00 UTC

Wind
  • Variable at 3 KTS
Cloud Levels
  • Broken at 2,000' AGL

Feb-23@
02:00 UTC

Feb-23 @ 02:00 UTC

Feb-23@
05:00 UTC

Feb-23 @ 05:00 UTC

PROB30 TEMPO 2302/2305 5000 BR BKN010

Temporary - 30% Likelihood

Temporary - 30% Likelihood during this time.

Conditions
Mist
Cloud Levels
  • Broken at 1,000' AGL